sensor_id;sensor_type;location;lat;lon;timestamp;temperature;humidity
72277;SHT30;61204;49.980;8.358;2024-02-23T01:35:57;7.38;75.14
72277;SHT30;61204;49.980;8.358;2024-02-23T01:38:23;7.36;76.06
72277;SHT30;61204;49.980;8.358;2024-02-23T01:40:50;7.34;75.82
72277;SHT30;61204;49.980;8.358;2024-02-23T01:43:15;7.25;75.88
72277;SHT30;61204;49.980;8.358;2024-02-23T01:45:46;7.11;75.54
72277;SHT30;61204;49.980;8.358;2024-02-23T01:48:13;7.04;76.40
72277;SHT30;61204;49.980;8.358;2024-02-23T01:50:43;6.96;77.01
72277;SHT30;61204;49.980;8.358;2024-02-23T01:53:10;6.86;77.54
72277;SHT30;61204;49.980;8.358;2024-02-23T01:55:41;6.86;77.33
72277;SHT30;61204;49.980;8.358;2024-02-23T01:58:07;6.76;77.74
72277;SHT30;61204;49.980;8.358;2024-02-23T02:00:35;6.71;77.91
72277;SHT30;61204;49.980;8.358;2024-02-23T02:03:02;6.64;78.29
72277;SHT30;61204;49.980;8.358;2024-02-23T02:05:28;6.83;77.74
72277;SHT30;61204;49.980;8.358;2024-02-23T02:07:55;6.80;77.89
72277;SHT30;61204;49.980;8.358;2024-02-23T02:10:25;6.79;76.96
72277;SHT30;61204;49.980;8.358;2024-02-23T02:12:51;6.72;77.31
72277;SHT30;61204;49.980;8.358;2024-02-23T02:15:17;6.61;77.72
72277;SHT30;61204;49.980;8.358;2024-02-23T02:17:43;6.51;77.72
72277;SHT30;61204;49.980;8.358;2024-02-23T02:20:12;6.32;78.51
72277;SHT30;61204;49.980;8.358;2024-02-23T02:22:39;6.37;77.43
72277;SHT30;61204;49.980;8.358;2024-02-23T02:25:06;6.28;77.71
72277;SHT30;61204;49.980;8.358;2024-02-23T02:27:32;6.09;79.01
72277;SHT30;61204;49.980;8.358;2024-02-23T02:29:58;5.85;79.99
72277;SHT30;61204;49.980;8.358;2024-02-23T02:32:24;5.68;80.45
72277;SHT30;61204;49.980;8.358;2024-02-23T02:34:52;5.55;80.48
72277;SHT30;61204;49.980;8.358;2024-02-23T02:37:17;5.48;80.63
72277;SHT30;61204;49.980;8.358;2024-02-23T02:39:45;5.59;78.95
72277;SHT30;61204;49.980;8.358;2024-02-23T02:42:10;5.59;78.43
72277;SHT30;61204;49.980;8.358;2024-02-23T02:44:39;5.60;78.33
72277;SHT30;61204;49.980;8.358;2024-02-23T02:47:04;5.59;78.09
72277;SHT30;61204;49.980;8.358;2024-02-23T02:49:30;5.60;77.81
72277;SHT30;61204;49.980;8.358;2024-02-23T02:51:58;5.60;77.82
72277;SHT30;61204;49.980;8.358;2024-02-23T02:54:24;5.60;77.57
72277;SHT30;61204;49.980;8.358;2024-02-23T02:56:50;5.65;77.46
72277;SHT30;61204;49.980;8.358;2024-02-23T02:59:16;5.59;77.56
72277;SHT30;61204;49.980;8.358;2024-02-23T03:01:45;5.62;77.54
72277;SHT30;61204;49.980;8.358;2024-02-23T03:04:13;5.60;77.69
72277;SHT30;61204;49.980;8.358;2024-02-23T03:06:39;5.63;77.70
72277;SHT30;61204;49.980;8.358;2024-02-23T03:09:04;5.55;78.29
72277;SHT30;61204;49.980;8.358;2024-02-23T03:11:30;5.63;78.56
72277;SHT30;61204;49.980;8.358;2024-02-23T03:13:55;5.63;78.67
72277;SHT30;61204;49.980;8.358;2024-02-23T03:16:23;5.70;79.20
72277;SHT30;61204;49.980;8.358;2024-02-23T03:18:52;5.68;79.26
72277;SHT30;61204;49.980;8.358;2024-02-23T03:21:20;5.63;79.51
72277;SHT30;61204;49.980;8.358;2024-02-23T03:23:45;5.56;79.88
72277;SHT30;61204;49.980;8.358;2024-02-23T03:26:13;5.42;80.50
72277;SHT30;61204;49.980;8.358;2024-02-23T03:28:43;5.35;80.83
72277;SHT30;61204;49.980;8.358;2024-02-23T03:31:09;5.28;81.26
72277;SHT30;61204;49.980;8.358;2024-02-23T03:33:34;5.21;81.26
72277;SHT30;61204;49.980;8.358;2024-02-23T03:36:00;5.19;81.59
72277;SHT30;61204;49.980;8.358;2024-02-23T03:38:26;5.26;81.06
72277;SHT30;61204;49.980;8.358;2024-02-23T03:40:51;5.17;81.21
72277;SHT30;61204;49.980;8.358;2024-02-23T03:43:17;5.27;80.67
72277;SHT30;61204;49.980;8.358;2024-02-23T03:45:44;5.23;80.76
72277;SHT30;61204;49.980;8.358;2024-02-23T03:48:10;5.26;80.73
72277;SHT30;61204;49.980;8.358;2024-02-23T03:50:36;5.20;80.59
72277;SHT30;61204;49.980;8.358;2024-02-23T03:53:01;5.00;81.59
72277;SHT30;61204;49.980;8.358;2024-02-23T03:55:29;4.95;81.98
72277;SHT30;61204;49.980;8.358;2024-02-23T03:57:54;4.79;82.21
72277;SHT30;61204;49.980;8.358;2024-02-23T04:00:20;4.90;81.73
72277;SHT30;61204;49.980;8.358;2024-02-23T04:02:49;4.78;81.93
72277;SHT30;61204;49.980;8.358;2024-02-23T04:05:14;4.86;81.62
72277;SHT30;61204;49.980;8.358;2024-02-23T04:07:40;4.86;81.62
72277;SHT30;61204;49.980;8.358;2024-02-23T04:10:07;4.85;81.73
72277;SHT30;61204;49.980;8.358;2024-02-23T04:12:33;4.82;81.83
72277;SHT30;61204;49.980;8.358;2024-02-23T04:14:58;4.93;81.28
72277;SHT30;61204;49.980;8.358;2024-02-23T04:17:24;4.76;81.93
72277;SHT30;61204;49.980;8.358;2024-02-23T04:19:49;4.76;82.26
72277;SHT30;61204;49.980;8.358;2024-02-23T04:22:15;4.57;82.91
72277;SHT30;61204;49.980;8.358;2024-02-23T04:24:41;4.57;82.72
72277;SHT30;61204;49.980;8.358;2024-02-23T04:27:07;4.40;83.48
72277;SHT30;61204;49.980;8.358;2024-02-23T04:29:34;4.45;83.21
72277;SHT30;61204;49.980;8.358;2024-02-23T04:32:01;4.20;84.01
72277;SHT30;61204;49.980;8.358;2024-02-23T04:34:27;4.09;84.89
72277;SHT30;61204;49.980;8.358;2024-02-23T04:36:56;4.07;84.57
72277;SHT30;61204;49.980;8.358;2024-02-23T04:39:21;4.07;84.98
72277;SHT30;61204;49.980;8.358;2024-02-23T04:41:47;4.10;84.90
72277;SHT30;61204;49.980;8.358;2024-02-23T04:44:15;4.09;84.81
72277;SHT30;61204;49.980;8.358;2024-02-23T04:46:40;4.00;85.22
72277;SHT30;61204;49.980;8.358;2024-02-23T04:49:10;4.03;85.26
72277;SHT30;61204;49.980;8.358;2024-02-23T04:51:37;3.90;85.90
72277;SHT30;61204;49.980;8.358;2024-02-23T04:54:02;3.92;85.89
72277;SHT30;61204;49.980;8.358;2024-02-23T04:56:28;4.17;85.26
72277;SHT30;61204;49.980;8.358;2024-02-23T04:58:54;4.17;85.11
72277;SHT30;61204;49.980;8.358;2024-02-23T05:01:19;4.11;85.20
72277;SHT30;61204;49.980;8.358;2024-02-23T05:03:45;4.06;85.51
72277;SHT30;61204;49.980;8.358;2024-02-23T05:06:10;4.00;85.61
72277;SHT30;61204;49.980;8.358;2024-02-23T05:08:36;3.96;86.12
72277;SHT30;61204;49.980;8.358;2024-02-23T05:11:01;4.06;85.40
72277;SHT30;61204;49.980;8.358;2024-02-23T05:13:28;4.20;85.06
72277;SHT30;61204;49.980;8.358;2024-02-23T05:15:56;4.11;84.81
72277;SHT30;61204;49.980;8.358;2024-02-23T05:18:22;4.17;84.38
72277;SHT30;61204;49.980;8.358;2024-02-23T05:20:48;4.14;84.46
72277;SHT30;61204;49.980;8.358;2024-02-23T05:23:14;4.03;85.16
72277;SHT30;61204;49.980;8.358;2024-02-23T05:25:43;4.00;85.14
72277;SHT30;61204;49.980;8.358;2024-02-23T05:28:09;4.02;85.33
72277;SHT30;61204;49.980;8.358;2024-02-23T05:30:34;4.03;85.38
72277;SHT30;61204;49.980;8.358;2024-02-23T05:33:02;4.20;84.79
72277;SHT30;61204;49.980;8.358;2024-02-23T05:35:29;4.14;85.12
72277;SHT30;61204;49.980;8.358;2024-02-23T05:37:55;4.18;85.06
72277;SHT30;61204;49.980;8.358;2024-02-23T05:40:21;4.11;85.03
72277;SHT30;61204;49.980;8.358;2024-02-23T05:42:47;4.13;84.89
72277;SHT30;61204;49.980;8.358;2024-02-23T05:45:12;4.11;85.32
72277;SHT30;61204;49.980;8.358;2024-02-23T05:47:41;4.13;85.14
72277;SHT30;61204;49.980;8.358;2024-02-23T05:50:08;4.11;85.51
72277;SHT30;61204;49.980;8.358;2024-02-23T05:52:35;4.13;85.57
72277;SHT30;61204;49.980;8.358;2024-02-23T05:55:03;4.09;85.57
72277;SHT30;61204;49.980;8.358;2024-02-23T05:57:31;4.02;85.83
72277;SHT30;61204;49.980;8.358;2024-02-23T05:59:57;4.09;85.32
72277;SHT30;61204;49.980;8.358;2024-02-23T06:02:25;4.18;85.22
72277;SHT30;61204;49.980;8.358;2024-02-23T06:04:51;4.17;84.79
72277;SHT30;61204;49.980;8.358;2024-02-23T06:07:17;4.13;85.15
72277;SHT30;61204;49.980;8.358;2024-02-23T06:09:45;4.20;84.40
72277;SHT30;61204;49.980;8.358;2024-02-23T06:12:11;4.25;84.18
72277;SHT30;61204;49.980;8.358;2024-02-23T06:14:36;4.23;84.40
72277;SHT30;61204;49.980;8.358;2024-02-23T06:17:02;4.06;85.29
72277;SHT30;61204;49.980;8.358;2024-02-23T06:19:29;3.85;86.46
72277;SHT30;61204;49.980;8.358;2024-02-23T06:21:54;3.90;87.42
72277;SHT30;61204;49.980;8.358;2024-02-23T06:24:20;3.76;87.71
72277;SHT30;61204;49.980;8.358;2024-02-23T06:26:46;3.89;87.71
72277;SHT30;61204;49.980;8.358;2024-02-23T06:29:14;3.99;88.09
72277;SHT30;61204;49.980;8.358;2024-02-23T06:31:40;4.09;87.69
72277;SHT30;61204;49.980;8.358;2024-02-23T06:34:07;4.18;87.40
72277;SHT30;61204;49.980;8.358;2024-02-23T06:36:34;4.24;87.34
72277;SHT30;61204;49.980;8.358;2024-02-23T06:38:59;4.48;86.73
72277;SHT30;61204;49.980;8.358;2024-02-23T06:41:25;4.58;86.22
72277;SHT30;61204;49.980;8.358;2024-02-23T06:43:51;4.72;85.61
72277;SHT30;61204;49.980;8.358;2024-02-23T06:46:19;4.80;85.24
72277;SHT30;61204;49.980;8.358;2024-02-23T06:48:47;4.89;85.16
72277;SHT30;61204;49.980;8.358;2024-02-23T06:51:13;4.80;85.30
72277;SHT30;61204;49.980;8.358;2024-02-23T06:53:40;4.82;85.07
72277;SHT30;61204;49.980;8.358;2024-02-23T06:56:06;4.89;85.12
72277;SHT30;61204;49.980;8.358;2024-02-23T06:58:32;4.93;85.31
72277;SHT30;61204;49.980;8.358;2024-02-23T07:00:57;5.00;85.06
72277;SHT30;61204;49.980;8.358;2024-02-23T07:03:23;4.96;84.88
72277;SHT30;61204;49.980;8.358;2024-02-23T07:05:48;5.10;84.17
72277;SHT30;61204;49.980;8.358;2024-02-23T07:08:15;5.24;83.41
72277;SHT30;61204;49.980;8.358;2024-02-23T07:10:41;5.24;83.79
72277;SHT30;61204;49.980;8.358;2024-02-23T07:13:07;5.27;83.37
72277;SHT30;61204;49.980;8.358;2024-02-23T07:15:34;5.47;82.56
72277;SHT30;61204;49.980;8.358;2024-02-23T07:18:01;5.58;81.88
72277;SHT30;61204;49.980;8.358;2024-02-23T07:20:29;5.69;82.30
72277;SHT30;61204;49.980;8.358;2024-02-23T07:22:55;6.06;81.26
72277;SHT30;61204;49.980;8.358;2024-02-23T07:25:21;6.21;80.43
72277;SHT30;61204;49.980;8.358;2024-02-23T07:27:46;6.25;79.98
72277;SHT30;61204;49.980;8.358;2024-02-23T07:30:15;6.30;79.40
72277;SHT30;61204;49.980;8.358;2024-02-23T07:32:44;6.27;78.90
72277;SHT30;61204;49.980;8.358;2024-02-23T07:35:12;6.30;79.34
72277;SHT30;61204;49.980;8.358;2024-02-23T07:37:39;6.38;78.98
72277;SHT30;61204;49.980;8.358;2024-02-23T07:40:05;6.42;78.99
72277;SHT30;61204;49.980;8.358;2024-02-23T07:42:32;6.42;79.17
72277;SHT30;61204;49.980;8.358;2024-02-23T07:45:04;6.30;79.06
72277;SHT30;61204;49.980;8.358;2024-02-23T07:47:36;6.24;79.32
72277;SHT30;61204;49.980;8.358;2024-02-23T07:50:01;6.21;79.05
72277;SHT30;61204;49.980;8.358;2024-02-23T07:52:27;6.18;78.85
72277;SHT30;61204;49.980;8.358;2024-02-23T07:54:53;6.17;78.41
72277;SHT30;61204;49.980;8.358;2024-02-23T07:57:21;6.23;78.21
72277;SHT30;61204;49.980;8.358;2024-02-23T07:59:52;6.25;78.56
72277;SHT30;61204;49.980;8.358;2024-02-23T08:02:17;6.25;78.54
72277;SHT30;61204;49.980;8.358;2024-02-23T08:04:43;6.28;77.75
72277;SHT30;61204;49.980;8.358;2024-02-23T08:07:09;6.21;77.98
72277;SHT30;61204;49.980;8.358;2024-02-23T08:09:35;6.28;77.16
72277;SHT30;61204;49.980;8.358;2024-02-23T08:12:03;6.32;77.42
72277;SHT30;61204;49.980;8.358;2024-02-23T08:14:28;6.32;77.45
72277;SHT30;61204;49.980;8.358;2024-02-23T08:16:54;6.32;77.42
72277;SHT30;61204;49.980;8.358;2024-02-23T08:19:20;6.45;76.62
72277;SHT30;61204;49.980;8.358;2024-02-23T08:21:45;6.48;76.84
72277;SHT30;61204;49.980;8.358;2024-02-23T08:24:11;6.51;76.00
72277;SHT30;61204;49.980;8.358;2024-02-23T08:26:39;6.62;76.37
72277;SHT30;61204;49.980;8.358;2024-02-23T08:29:06;6.72;76.54
72277;SHT30;61204;49.980;8.358;2024-02-23T08:31:31;6.62;75.95
72277;SHT30;61204;49.980;8.358;2024-02-23T08:33:57;6.75;76.12
72277;SHT30;61204;49.980;8.358;2024-02-23T08:36:22;6.99;76.39
72277;SHT30;61204;49.980;8.358;2024-02-23T08:38:48;7.14;75.14
72277;SHT30;61204;49.980;8.358;2024-02-23T08:41:13;7.17;75.01
72277;SHT30;61204;49.980;8.358;2024-02-23T08:43:40;7.11;74.46
72277;SHT30;61204;49.980;8.358;2024-02-23T08:46:06;7.04;74.87
72277;SHT30;61204;49.980;8.358;2024-02-23T08:48:31;6.93;75.00
72277;SHT30;61204;49.980;8.358;2024-02-23T08:50:57;6.87;75.30
72277;SHT30;61204;49.980;8.358;2024-02-23T08:53:25;6.85;75.32
72277;SHT30;61204;49.980;8.358;2024-02-23T08:55:50;6.90;75.90
72277;SHT30;61204;49.980;8.358;2024-02-23T08:58:16;6.83;75.19
72277;SHT30;61204;49.980;8.358;2024-02-23T09:00:41;6.85;75.15
72277;SHT30;61204;49.980;8.358;2024-02-23T09:03:09;6.92;75.75
72277;SHT30;61204;49.980;8.358;2024-02-23T09:05:37;7.05;75.49
72277;SHT30;61204;49.980;8.358;2024-02-23T09:08:05;7.11;75.81
72277;SHT30;61204;49.980;8.358;2024-02-23T09:10:31;6.99;74.78
72277;SHT30;61204;49.980;8.358;2024-02-23T09:12:57;7.13;75.05
72277;SHT30;61204;49.980;8.358;2024-02-23T09:15:22;7.08;75.63
72277;SHT30;61204;49.980;8.358;2024-02-23T09:17:48;7.18;75.07
72277;SHT30;61204;49.980;8.358;2024-02-23T09:20:13;7.17;75.65
72277;SHT30;61204;49.980;8.358;2024-02-23T09:22:39;7.23;75.21
72277;SHT30;61204;49.980;8.358;2024-02-23T09:25:08;7.31;74.77
72277;SHT30;61204;49.980;8.358;2024-02-23T09:27:36;7.66;74.06
72277;SHT30;61204;49.980;8.358;2024-02-23T09:30:13;7.68;74.21
72277;SHT30;61204;49.980;8.358;2024-02-23T09:32:39;7.80;73.32
72277;SHT30;61204;49.980;8.358;2024-02-23T09:35:05;7.91;72.96
72277;SHT30;61204;49.980;8.358;2024-02-23T09:37:32;7.86;73.14
72277;SHT30;61204;49.980;8.358;2024-02-23T09:39:58;7.79;73.34
72277;SHT30;61204;49.980;8.358;2024-02-23T09:42:28;7.56;73.78
72277;SHT30;61204;49.980;8.358;2024-02-23T09:44:59;7.76;73.60
72277;SHT30;61204;49.980;8.358;2024-02-23T09:47:27;7.90;73.45
72277;SHT30;61204;49.980;8.358;2024-02-23T09:49:56;7.96;73.28
72277;SHT30;61204;49.980;8.358;2024-02-23T09:52:22;7.97;72.48
72277;SHT30;61204;49.980;8.358;2024-02-23T09:54:50;8.01;72.17
72277;SHT30;61204;49.980;8.358;2024-02-23T09:57:17;8.10;73.35
72277;SHT30;61204;49.980;8.358;2024-02-23T09:59:48;8.27;71.76
72277;SHT30;61204;49.980;8.358;2024-02-23T10:02:16;8.48;71.21
72277;SHT30;61204;49.980;8.358;2024-02-23T10:04:49;8.51;70.85
72277;SHT30;61204;49.980;8.358;2024-02-23T10:07:16;8.40;70.41
72277;SHT30;61204;49.980;8.358;2024-02-23T10:09:42;8.55;70.62
72277;SHT30;61204;49.980;8.358;2024-02-23T10:12:08;8.53;71.15
72277;SHT30;61204;49.980;8.358;2024-02-23T10:14:33;8.41;71.05
72277;SHT30;61204;49.980;8.358;2024-02-23T10:16:59;8.38;71.28
72277;SHT30;61204;49.980;8.358;2024-02-23T10:19:27;8.27;71.91
72277;SHT30;61204;49.980;8.358;2024-02-23T10:21:56;8.27;70.95
72277;SHT30;61204;49.980;8.358;2024-02-23T10:24:23;8.10;71.71
72277;SHT30;61204;49.980;8.358;2024-02-23T10:26:51;8.10;71.42
72277;SHT30;61204;49.980;8.358;2024-02-23T10:29:17;8.01;71.91
72277;SHT30;61204;49.980;8.358;2024-02-23T10:31:47;8.22;71.56
72277;SHT30;61204;49.980;8.358;2024-02-23T10:34:18;8.31;69.84
72277;SHT30;61204;49.980;8.358;2024-02-23T10:36:46;8.65;69.78
72277;SHT30;61204;49.980;8.358;2024-02-23T10:39:17;8.83;68.55
72277;SHT30;61204;49.980;8.358;2024-02-23T10:41:57;8.63;68.76
72277;SHT30;61204;49.980;8.358;2024-02-23T10:44:28;8.40;68.96
72277;SHT30;61204;49.980;8.358;2024-02-23T10:46:55;8.35;68.13
72277;SHT30;61204;49.980;8.358;2024-02-23T10:49:28;8.41;69.11
72277;SHT30;61204;49.980;8.358;2024-02-23T10:51:57;8.44;68.98
72277;SHT30;61204;49.980;8.358;2024-02-23T10:54:23;8.40;68.48
72277;SHT30;61204;49.980;8.358;2024-02-23T10:56:51;8.35;68.83
72277;SHT30;61204;49.980;8.358;2024-02-23T10:59:21;8.18;69.81
72277;SHT30;61204;49.980;8.358;2024-02-23T11:01:51;8.42;69.23
72277;SHT30;61204;49.980;8.358;2024-02-23T11:04:21;8.70;69.15
72277;SHT30;61204;49.980;8.358;2024-02-23T11:07:13;8.65;68.40
72277;SHT30;61204;49.980;8.358;2024-02-23T11:09:40;8.55;70.27
72277;SHT30;61204;49.980;8.358;2024-02-23T11:12:05;9.04;70.12
72277;SHT30;61204;49.980;8.358;2024-02-23T11:14:34;8.70;67.39
72277;SHT30;61204;49.980;8.358;2024-02-23T11:17:02;8.96;69.04
72277;SHT30;61204;49.980;8.358;2024-02-23T11:19:39;9.38;67.19
72277;SHT30;61204;49.980;8.358;2024-02-23T11:22:10;9.56;67.11
72277;SHT30;61204;49.980;8.358;2024-02-23T11:24:43;10.25;65.76
72277;SHT30;61204;49.980;8.358;2024-02-23T11:27:15;9.96;62.93
72277;SHT30;61204;49.980;8.358;2024-02-23T11:29:47;9.76;64.30
72277;SHT30;61204;49.980;8.358;2024-02-23T11:32:17;9.18;65.48
72277;SHT30;61204;49.980;8.358;2024-02-23T11:34:54;9.05;64.75
72277;SHT30;61204;49.980;8.358;2024-02-23T11:37:28;9.11;66.21
72277;SHT30;61204;49.980;8.358;2024-02-23T11:39:55;9.35;65.66
72277;SHT30;61204;49.980;8.358;2024-02-23T11:42:23;9.25;63.27
72277;SHT30;61204;49.980;8.358;2024-02-23T11:44:50;9.55;64.64
72277;SHT30;61204;49.980;8.358;2024-02-23T11:47:18;9.22;64.94
72277;SHT30;61204;49.980;8.358;2024-02-23T11:49:44;8.97;65.22
72277;SHT30;61204;49.980;8.358;2024-02-23T11:52:10;9.01;65.52
72277;SHT30;61204;49.980;8.358;2024-02-23T11:54:37;9.10;66.20
72277;SHT30;61204;49.980;8.358;2024-02-23T11:57:05;9.32;64.57
72277;SHT30;61204;49.980;8.358;2024-02-23T11:59:32;9.42;65.71
72277;SHT30;61204;49.980;8.358;2024-02-23T12:01:57;8.84;64.79
72277;SHT30;61204;49.980;8.358;2024-02-23T12:04:23;8.94;65.71
72277;SHT30;61204;49.980;8.358;2024-02-23T12:06:49;9.17;65.75
72277;SHT30;61204;49.980;8.358;2024-02-23T12:09:15;8.99;65.58
72277;SHT30;61204;49.980;8.358;2024-02-23T12:11:41;8.81;66.04
72277;SHT30;61204;49.980;8.358;2024-02-23T12:14:10;8.83;66.42
72277;SHT30;61204;49.980;8.358;2024-02-23T12:16:36;9.08;65.77
72277;SHT30;61204;49.980;8.358;2024-02-23T12:19:02;8.81;65.75
72277;SHT30;61204;49.980;8.358;2024-02-23T12:21:34;8.90;66.00
72277;SHT30;61204;49.980;8.358;2024-02-23T12:24:06;8.99;66.95
72277;SHT30;61204;49.980;8.358;2024-02-23T12:26:35;9.01;66.11
72277;SHT30;61204;49.980;8.358;2024-02-23T12:29:02;9.07;64.41
72277;SHT30;61204;49.980;8.358;2024-02-23T12:31:28;9.00;63.75
72277;SHT30;61204;49.980;8.358;2024-02-23T12:33:57;9.50;63.86
72277;SHT30;61204;49.980;8.358;2024-02-23T12:36:23;9.32;63.67
72277;SHT30;61204;49.980;8.358;2024-02-23T12:38:49;9.70;63.26
72277;SHT30;61204;49.980;8.358;2024-02-23T12:41:15;9.76;63.16
72277;SHT30;61204;49.980;8.358;2024-02-23T12:43:40;9.53;61.39
72277;SHT30;61204;49.980;8.358;2024-02-23T12:46:06;9.27;60.39
72277;SHT30;61204;49.980;8.358;2024-02-23T12:48:35;9.31;61.00
72277;SHT30;61204;49.980;8.358;2024-02-23T12:51:00;9.38;61.69
72277;SHT30;61204;49.980;8.358;2024-02-23T12:53:41;9.30;61.67
72277;SHT30;61204;49.980;8.358;2024-02-23T12:56:14;9.41;60.55
72277;SHT30;61204;49.980;8.358;2024-02-23T12:58:43;9.90;59.87
72277;SHT30;61204;49.980;8.358;2024-02-23T13:01:10;9.94;59.29
72277;SHT30;61204;49.980;8.358;2024-02-23T13:03:38;10.45;59.18
72277;SHT30;61204;49.980;8.358;2024-02-23T13:06:07;10.35;59.05
72277;SHT30;61204;49.980;8.358;2024-02-23T13:08:33;10.10;59.38
72277;SHT30;61204;49.980;8.358;2024-02-23T13:11:01;9.70;58.31
72277;SHT30;61204;49.980;8.358;2024-02-23T13:13:28;9.52;59.79
72277;SHT30;61204;49.980;8.358;2024-02-23T13:15:54;9.56;58.59
72277;SHT30;61204;49.980;8.358;2024-02-23T13:18:20;9.46;58.18
72277;SHT30;61204;49.980;8.358;2024-02-23T13:20:47;9.31;58.40
72277;SHT30;61204;49.980;8.358;2024-02-23T13:23:12;9.48;58.04
72277;SHT30;61204;49.980;8.358;2024-02-23T13:25:39;9.42;59.35
72277;SHT30;61204;49.980;8.358;2024-02-23T13:28:06;9.56;60.14
72277;SHT30;61204;49.980;8.358;2024-02-23T13:30:35;9.62;59.42
72277;SHT30;61204;49.980;8.358;2024-02-23T13:33:05;9.50;59.10
72277;SHT30;61204;49.980;8.358;2024-02-23T13:35:34;9.55;57.64
72277;SHT30;61204;49.980;8.358;2024-02-23T13:37:59;9.62;58.44
72277;SHT30;61204;49.980;8.358;2024-02-23T13:40:25;9.52;58.30
72277;SHT30;61204;49.980;8.358;2024-02-23T13:42:50;9.82;60.23
72277;SHT30;61204;49.980;8.358;2024-02-23T13:45:19;9.87;57.75
72277;SHT30;61204;49.980;8.358;2024-02-23T13:48:00;9.72;57.75
72277;SHT30;61204;49.980;8.358;2024-02-23T13:50:27;9.60;58.58
72277;SHT30;61204;49.980;8.358;2024-02-23T13:52:56;9.85;58.34
72277;SHT30;61204;49.980;8.358;2024-02-23T13:55:22;9.97;58.28
72277;SHT30;61204;49.980;8.358;2024-02-23T13:57:49;10.34;58.99
72277;SHT30;61204;49.980;8.358;2024-02-23T14:00:17;10.53;56.66
72277;SHT30;61204;49.980;8.358;2024-02-23T14:02:44;10.18;56.74
72277;SHT30;61204;49.980;8.358;2024-02-23T14:05:10;10.62;56.27
72277;SHT30;61204;49.980;8.358;2024-02-23T14:07:38;10.46;55.98
72277;SHT30;61204;49.980;8.358;2024-02-23T14:10:05;11.32;55.07
72277;SHT30;61204;49.980;8.358;2024-02-23T14:12:31;11.06;55.00
72277;SHT30;61204;49.980;8.358;2024-02-23T14:14:56;10.93;55.58
72277;SHT30;61204;49.980;8.358;2024-02-23T14:17:22;10.67;54.39
72277;SHT30;61204;49.980;8.358;2024-02-23T14:19:50;10.84;56.80
72277;SHT30;61204;49.980;8.358;2024-02-23T14:22:16;10.90;55.88
72277;SHT30;61204;49.980;8.358;2024-02-23T14:24:42;10.96;56.39
72277;SHT30;61204;49.980;8.358;2024-02-23T14:27:08;11.00;57.06
72277;SHT30;61204;49.980;8.358;2024-02-23T14:29:36;11.24;56.21
72277;SHT30;61204;49.980;8.358;2024-02-23T14:32:04;11.34;54.87
72277;SHT30;61204;49.980;8.358;2024-02-23T14:34:30;11.65;55.00
72277;SHT30;61204;49.980;8.358;2024-02-23T14:36:58;11.75;53.57
72277;SHT30;61204;49.980;8.358;2024-02-23T14:39:26;12.00;51.86
72277;SHT30;61204;49.980;8.358;2024-02-23T14:41:52;11.76;52.05
72277;SHT30;61204;49.980;8.358;2024-02-23T14:44:17;11.08;52.81
72277;SHT30;61204;49.980;8.358;2024-02-23T14:46:43;10.72;53.82
72277;SHT30;61204;49.980;8.358;2024-02-23T14:49:08;10.58;55.04
72277;SHT30;61204;49.980;8.358;2024-02-23T14:51:35;10.42;57.72
72277;SHT30;61204;49.980;8.358;2024-02-23T14:54:02;10.08;63.52
72277;SHT30;61204;49.980;8.358;2024-02-23T14:56:28;10.14;64.93
72277;SHT30;61204;49.980;8.358;2024-02-23T14:58:53;10.08;65.76
72277;SHT30;61204;49.980;8.358;2024-02-23T15:01:19;10.10;65.42
72277;SHT30;61204;49.980;8.358;2024-02-23T15:03:45;10.18;65.68
72277;SHT30;61204;49.980;8.358;2024-02-23T15:06:13;10.37;65.95
72277;SHT30;61204;49.980;8.358;2024-02-23T15:08:41;10.27;66.63
72277;SHT30;61204;49.980;8.358;2024-02-23T15:11:09;10.72;65.72
72277;SHT30;61204;49.980;8.358;2024-02-23T15:13:35;10.94;66.24
72277;SHT30;61204;49.980;8.358;2024-02-23T15:16:01;10.99;65.74
72277;SHT30;61204;49.980;8.358;2024-02-23T15:18:27;11.00;65.39
72277;SHT30;61204;49.980;8.358;2024-02-23T15:20:52;10.72;66.68
72277;SHT30;61204;49.980;8.358;2024-02-23T15:23:18;10.42;66.64
72277;SHT30;61204;49.980;8.358;2024-02-23T15:25:43;10.31;67.49
72277;SHT30;61204;49.980;8.358;2024-02-23T15:28:09;10.72;67.07
72277;SHT30;61204;49.980;8.358;2024-02-23T15:30:37;10.92;66.74
72277;SHT30;61204;49.980;8.358;2024-02-23T15:33:02;10.89;65.70
72277;SHT30;61204;49.980;8.358;2024-02-23T15:35:28;10.25;68.72
72277;SHT30;61204;49.980;8.358;2024-02-23T15:37:55;9.86;70.38
72277;SHT30;61204;49.980;8.358;2024-02-23T15:40:23;9.43;71.37
72277;SHT30;61204;49.980;8.358;2024-02-23T15:42:48;9.22;72.53
72277;SHT30;61204;49.980;8.358;2024-02-23T15:45:18;9.15;73.16
72277;SHT30;61204;49.980;8.358;2024-02-23T15:47:46;8.99;73.51
72277;SHT30;61204;49.980;8.358;2024-02-23T15:50:12;9.01;73.55
72277;SHT30;61204;49.980;8.358;2024-02-23T15:52:38;9.03;72.96
72277;SHT30;61204;49.980;8.358;2024-02-23T15:55:05;8.99;73.50
72277;SHT30;61204;49.980;8.358;2024-02-23T15:57:31;8.94;73.06
72277;SHT30;61204;49.980;8.358;2024-02-23T15:59:56;8.91;73.23
72277;SHT30;61204;49.980;8.358;2024-02-23T16:02:22;8.87;73.07
72277;SHT30;61204;49.980;8.358;2024-02-23T16:04:48;8.83;73.78
72277;SHT30;61204;49.980;8.358;2024-02-23T16:07:13;8.77;73.66
72277;SHT30;61204;49.980;8.358;2024-02-23T16:09:40;8.68;74.03
72277;SHT30;61204;49.980;8.358;2024-02-23T16:12:06;8.52;74.22
72277;SHT30;61204;49.980;8.358;2024-02-23T16:14:35;8.46;74.64
72277;SHT30;61204;49.980;8.358;2024-02-23T16:17:00;8.42;74.54
72277;SHT30;61204;49.980;8.358;2024-02-23T16:19:28;8.49;74.22
72277;SHT30;61204;49.980;8.358;2024-02-23T16:21:55;8.46;74.42
72277;SHT30;61204;49.980;8.358;2024-02-23T16:24:21;8.42;74.35
72277;SHT30;61204;49.980;8.358;2024-02-23T16:26:46;8.51;74.19
72277;SHT30;61204;49.980;8.358;2024-02-23T16:29:12;8.52;73.77
72277;SHT30;61204;49.980;8.358;2024-02-23T16:31:37;8.58;73.82
72277;SHT30;61204;49.980;8.358;2024-02-23T16:34:04;8.56;74.06
72277;SHT30;61204;49.980;8.358;2024-02-23T16:36:30;8.51;74.45
72277;SHT30;61204;49.980;8.358;2024-02-23T16:38:55;8.41;74.96
72277;SHT30;61204;49.980;8.358;2024-02-23T16:41:22;8.41;74.85
72277;SHT30;61204;49.980;8.358;2024-02-23T16:43:48;8.30;75.12
72277;SHT30;61204;49.980;8.358;2024-02-23T16:46:14;8.30;75.30
72277;SHT30;61204;49.980;8.358;2024-02-23T16:48:40;8.30;75.15
72277;SHT30;61204;49.980;8.358;2024-02-23T16:51:05;8.25;75.19
72277;SHT30;61204;49.980;8.358;2024-02-23T16:53:32;8.34;75.18
72277;SHT30;61204;49.980;8.358;2024-02-23T16:56:00;8.27;75.57
72277;SHT30;61204;49.980;8.358;2024-02-23T16:58:29;8.24;75.95
72277;SHT30;61204;49.980;8.358;2024-02-23T17:01:03;8.15;75.88
72277;SHT30;61204;49.980;8.358;2024-02-23T17:03:31;8.07;76.61
72277;SHT30;61204;49.980;8.358;2024-02-23T17:05:57;7.96;77.11
72277;SHT30;61204;49.980;8.358;2024-02-23T17:08:23;8.00;77.27
72277;SHT30;61204;49.980;8.358;2024-02-23T17:10:51;8.08;76.89
72277;SHT30;61204;49.980;8.358;2024-02-23T17:13:17;8.08;77.02
72277;SHT30;61204;49.980;8.358;2024-02-23T17:15:42;8.11;76.79
72277;SHT30;61204;49.980;8.358;2024-02-23T17:18:08;8.01;77.04